Time;durP1;ratioP1;P1;durP2;ratioP2;P2;SDS_P1;SDS_P2;PMS_P1;PMS_P2;Temp;Humidity;BMP_temperature;BMP_pressure;BME280_temperature;BME280_humidity;BME280_pressure;Samples;Min_cycle;Max_cycle;Signal;HPM_P1;HPM_P2
2022/11/30 00:07:47;;;;;;;44.60;20.50;;;;;;;2.98;90.89;101563.98;661329;1310;138824;-76
2022/11/30 00:22:50;;;;;;;40.10;19.30;;;;;;;2.91;90.89;101567.17;661418;1310;138545;-76
2022/11/30 00:37:54;;;;;;;42.50;20.20;;;;;;;2.88;91.09;101570.54;661373;1310;138663;-75
2022/11/30 00:52:57;;;;;;;58.70;22.50;;;;;;;2.87;90.87;101573.70;661200;1310;138533;-76
2022/11/30 01:08:06;;;;;;;45.90;19.80;;;;;;;2.80;91.14;101572.20;660949;1310;139121;-76
2022/11/30 01:23:10;;;;;;;42.30;20.00;;;;;;;2.83;91.01;101582.29;660791;1310;141774;-76
2022/11/30 01:38:13;;;;;;;55.20;25.10;;;;;;;2.86;91.01;101583.39;660906;1312;138571;-75
2022/11/30 01:53:16;;;;;;;41.90;20.20;;;;;;;2.87;90.72;101582.67;661118;1303;142082;-75
2022/11/30 02:08:21;;;;;;;45.20;19.90;;;;;;;2.88;90.62;101596.48;661110;1310;138839;-75
2022/11/30 02:24:00;;;;;;;43.90;20.90;;;;;;;2.85;90.91;101593.29;661238;1309;138853;-75
2022/11/30 02:39:04;;;;;;;59.90;24.30;;;;;;;2.88;90.66;101599.59;661356;1310;138569;-75
2022/11/30 02:54:10;;;;;;;54.10;21.60;;;;;;;2.83;90.53;101614.79;661326;1310;141024;-76
2022/11/30 03:09:14;;;;;;;61.10;25.60;;;;;;;2.82;90.31;101618.77;661107;1308;140886;-76
2022/11/30 03:24:17;;;;;;;86.80;27.40;;;;;;;2.80;90.10;101629.58;661350;1304;138497;-76
2022/11/30 03:39:20;;;;;;;63.30;25.00;;;;;;;2.83;89.44;101625.30;661288;1310;139932;-75
2022/11/30 03:54:24;;;;;;;59.70;24.20;;;;;;;2.87;89.38;101628.11;661187;1310;138628;-76
2022/11/30 04:09:27;;;;;;;44.10;19.10;;;;;;;2.87;89.46;101632.79;662929;1303;138632;-75
2022/11/30 04:24:30;;;;;;;36.70;16.70;;;;;;;2.77;89.23;101633.48;661608;1310;139173;-76
2022/11/30 04:39:34;;;;;;;42.80;18.20;;;;;;;2.78;89.32;101637.94;661614;1307;138513;-76
2022/11/30 04:54:37;;;;;;;150.20;56.70;;;;;;;2.83;89.16;101654.70;661029;1310;138522;-76
2022/11/30 05:09:41;;;;;;;50.50;21.90;;;;;;;2.84;88.83;101669.52;661225;1311;139135;-76
2022/11/30 05:24:44;;;;;;;68.10;27.70;;;;;;;2.88;88.88;101677.85;661234;1310;138860;-76
2022/11/30 05:39:48;;;;;;;58.00;27.50;;;;;;;2.97;88.93;101686.02;661092;1306;138533;-76
2022/11/30 05:54:51;;;;;;;53.40;21.80;;;;;;;2.94;88.47;101684.41;661134;1305;138917;-76
2022/11/30 06:09:55;;;;;;;57.30;25.20;;;;;;;2.94;88.82;101691.33;661336;1311;139984;-76
2022/11/30 06:24:58;;;;;;;53.20;25.20;;;;;;;3.02;89.30;101698.82;661138;1312;138819;-76
2022/11/30 06:40:02;;;;;;;130.10;58.00;;;;;;;3.03;89.32;101711.55;661434;1311;138731;-75
2022/11/30 06:55:10;;;;;;;75.70;35.40;;;;;;;2.99;89.60;101716.02;661246;1311;138946;-76
2022/11/30 07:10:13;;;;;;;69.90;30.50;;;;;;;3.10;89.71;101733.14;661436;1305;138849;-76
2022/11/30 07:40:43;;;;;;;162.00;55.10;;;;;;;3.20;89.30;101744.20;661253;1310;138613;-76
2022/11/30 07:55:47;;;;;;;90.20;43.40;;;;;;;3.26;89.14;101754.73;661226;1310;138895;-76
2022/11/30 08:10:59;;;;;;;64.70;29.00;;;;;;;3.29;88.83;101754.45;661622;1310;138568;-76
2022/11/30 08:26:05;;;;;;;100.60;39.10;;;;;;;3.35;88.38;101765.49;661262;1305;138861;-75
2022/11/30 08:41:11;;;;;;;88.00;35.40;;;;;;;3.33;88.28;101772.66;661326;1306;138664;-75
2022/11/30 08:56:18;;;;;;;106.30;38.00;;;;;;;3.36;88.22;101782.59;661358;1310;138663;-75
2022/11/30 09:11:30;;;;;;;86.00;33.50;;;;;;;3.28;87.59;101788.55;661517;1311;138604;-75
2022/11/30 09:26:33;;;;;;;65.40;29.60;;;;;;;3.40;87.63;101803.03;661028;1312;138916;-75
2022/11/30 09:41:51;;;;;;;82.10;39.30;;;;;;;3.43;87.67;101812.77;661419;1304;138694;-75
2022/11/30 09:56:54;;;;;;;65.40;30.40;;;;;;;3.46;87.48;101811.98;661483;1310;138414;-76
2022/11/30 10:12:04;;;;;;;93.40;33.40;;;;;;;3.42;87.68;101811.98;661252;1310;138572;-75
2022/11/30 10:27:36;;;;;;;152.20;47.10;;;;;;;3.36;88.02;101808.36;661326;1310;138677;-75
2022/11/30 10:42:51;;;;;;;160.00;62.60;;;;;;;3.31;88.10;101809.73;661100;1310;138661;-75
2022/11/30 10:58:02;;;;;;;55.20;27.30;;;;;;;3.29;87.92;101804.79;660924;1299;138716;-76
2022/11/30 11:13:38;;;;;;;64.50;28.60;;;;;;;3.27;87.61;101805.02;661350;1309;138712;-75
2022/11/30 11:28:49;;;;;;;544.00;161.80;;;;;;;3.35;88.01;101798.02;661487;1310;138557;-76
2022/11/30 11:44:03;;;;;;;230.90;73.50;;;;;;;3.40;87.95;101793.86;660828;1308;139007;-76
2022/11/30 11:59:22;;;;;;;388.80;109.40;;;;;;;3.37;87.78;101798.44;661135;1310;139102;-75
2022/11/30 12:14:34;;;;;;;117.40;42.50;;;;;;;3.48;87.70;101803.09;661533;1296;138914;-76
2022/11/30 12:29:49;;;;;;;187.40;58.40;;;;;;;3.42;87.32;101812.12;661270;1310;138909;-76
2022/11/30 12:44:55;;;;;;;142.50;50.80;;;;;;;3.41;86.52;101808.01;661236;1310;138797;-76
2022/11/30 13:00:16;;;;;;;136.80;53.00;;;;;;;3.32;86.80;101812.97;661568;1310;138862;-76
2022/11/30 13:15:24;;;;;;;49.30;21.10;;;;;;;3.37;86.67;101809.00;661183;1310;138772;-76
2022/11/30 13:30:52;;;;;;;120.40;41.30;;;;;;;3.29;86.95;101807.73;661050;1310;139298;-76
2022/11/30 13:46:11;;;;;;;399.40;107.30;;;;;;;3.33;87.32;101808.78;661399;1310;138835;-77
2022/11/30 14:01:26;;;;;;;173.60;67.50;;;;;;;3.38;87.27;101818.48;661148;1309;138919;-77
2022/11/30 14:16:30;;;;;;;198.20;57.60;;;;;;;3.58;86.94;101818.33;660955;1312;138791;-75
2022/11/30 14:31:57;;;;;;;421.80;145.70;;;;;;;3.44;88.01;101808.77;660986;1310;162164;-75
2022/11/30 14:47:26;;;;;;;505.10;201.80;;;;;;;3.59;88.14;101809.84;660993;1299;139194;-75
2022/11/30 15:02:36;;;;;;;215.30;65.40;;;;;;;3.67;88.29;101811.25;660887;1311;139031;-75
2022/11/30 15:17:47;;;;;;;96.90;38.20;;;;;;;3.80;88.60;101810.65;661504;1305;138956;-75
2022/11/30 15:32:51;;;;;;;146.50;49.70;;;;;;;3.88;88.68;101818.36;662276;1303;138941;-75
2022/11/30 15:47:57;;;;;;;170.50;61.90;;;;;;;3.90;88.93;101821.56;661539;1310;139953;-75
2022/11/30 16:03:12;;;;;;;58.20;28.30;;;;;;;4.07;88.33;101829.44;661093;1301;138757;-75
2022/11/30 16:18:21;;;;;;;97.10;39.40;;;;;;;4.01;88.77;101835.02;661301;1310;139584;-75
2022/11/30 16:33:25;;;;;;;133.80;62.40;;;;;;;4.06;88.62;101833.29;660939;1310;139334;-76
2022/11/30 16:48:29;;;;;;;116.70;46.60;;;;;;;4.12;89.31;101841.54;661253;1310;138683;-76
2022/11/30 17:03:34;;;;;;;139.20;49.50;;;;;;;4.19;88.98;101839.58;661403;1304;138708;-74
2022/11/30 17:18:38;;;;;;;156.00;59.30;;;;;;;4.07;89.48;101834.99;661034;1311;139917;-76
2022/11/30 17:33:41;;;;;;;110.30;44.20;;;;;;;4.07;89.19;101838.10;661020;1308;138823;-77
2022/11/30 17:48:50;;;;;;;112.10;45.60;;;;;;;4.13;89.06;101843.95;661132;1307;140215;-77
2022/11/30 18:03:55;;;;;;;237.30;74.00;;;;;;;4.13;89.08;101858.81;661143;1310;138829;-75
2022/11/30 18:18:59;;;;;;;161.40;52.30;;;;;;;4.20;88.66;101871.07;661150;1309;139220;-74
2022/11/30 18:34:05;;;;;;;88.50;35.40;;;;;;;4.17;88.46;101872.89;661422;1299;138772;-75
2022/11/30 18:49:10;;;;;;;43.10;18.80;;;;;;;4.12;87.64;101875.64;660759;1308;139393;-75
2022/11/30 19:04:14;;;;;;;91.20;33.60;;;;;;;4.17;86.86;101889.34;661141;1305;138748;-74
2022/11/30 19:19:17;;;;;;;37.30;18.70;;;;;;;4.22;86.86;101901.30;660605;1304;138708;-75
2022/11/30 19:34:21;;;;;;;33.80;15.40;;;;;;;4.17;86.94;101901.11;660965;1312;138616;-74
2022/11/30 19:49:24;;;;;;;38.90;20.30;;;;;;;4.13;87.10;101906.46;660882;1306;138522;-74
2022/11/30 20:04:28;;;;;;;167.20;51.00;;;;;;;4.15;86.79;101912.29;660755;1312;138428;-74
2022/11/30 20:19:31;;;;;;;73.50;27.50;;;;;;;4.13;86.87;101914.95;662593;1296;138832;-74
2022/11/30 20:34:35;;;;;;;139.70;44.90;;;;;;;4.20;86.88;101927.84;660900;1311;138491;-75
2022/11/30 20:49:45;;;;;;;62.20;21.50;;;;;;;4.16;86.91;101930.42;660935;1312;138738;-75
2022/11/30 21:04:48;;;;;;;133.40;40.50;;;;;;;4.12;86.93;101923.78;660732;1307;138598;-75
2022/11/30 21:19:52;;;;;;;83.70;29.20;;;;;;;4.08;86.11;101929.48;660894;1303;139367;-75
2022/11/30 21:34:56;;;;;;;98.30;34.40;;;;;;;4.16;86.44;101932.13;661051;1311;139201;-75
2022/11/30 21:50:00;;;;;;;64.20;24.70;;;;;;;4.20;86.66;101933.07;660644;1311;138731;-74
2022/11/30 22:05:04;;;;;;;112.30;35.20;;;;;;;4.11;86.67;101933.34;660932;1312;138625;-74
2022/11/30 22:20:08;;;;;;;90.60;26.70;;;;;;;4.09;86.24;101930.84;661072;1311;138904;-74
2022/11/30 22:35:11;;;;;;;34.50;16.30;;;;;;;4.03;86.16;101930.68;661001;1311;138607;-75
2022/11/30 22:50:15;;;;;;;45.00;16.80;;;;;;;4.04;86.53;101928.05;661118;1310;138386;-75
2022/11/30 23:05:18;;;;;;;44.30;18.80;;;;;;;4.04;86.30;101923.72;661616;1310;138704;-75
2022/11/30 23:20:22;;;;;;;27.00;12.20;;;;;;;4.04;86.19;101921.82;661196;1312;138526;-75
2022/11/30 23:35:25;;;;;;;42.60;17.70;;;;;;;4.02;85.54;101916.68;661454;1310;138615;-75
2022/11/30 23:50:28;;;;;;;30.10;15.40;;;;;;;4.14;85.53;101910.23;661338;1312;138608;-75
